Time;durP1;ratioP1;P1;durP2;ratioP2;P2;SDS_P1;SDS_P2;PMS_P1;PMS_P2;Temp;Humidity;BMP_temperature;BMP_pressure;BME280_temperature;BME280_humidity;BME280_pressure;Samples;Min_cycle;Max_cycle;Signal;HPM_P1;HPM_P2
2024/03/22 00:04:37;;;;;;;20.77;11.88;;;;;;;7.97;100.00;101872.38;10265224;28;20509;-76
2024/03/22 00:09:33;;;;;;;21.85;12.27;;;;;;;7.95;100.00;101866.38;10275230;28;20048;-76
2024/03/22 00:14:29;;;;;;;24.02;11.38;;;;;;;7.97;100.00;101861.50;10264990;28;20083;-76
2024/03/22 00:19:24;;;;;;;21.05;11.85;;;;;;;8.03;100.00;101857.69;10271671;28;20416;-76
2024/03/22 00:24:20;;;;;;;21.08;11.93;;;;;;;8.07;100.00;101842.41;10282397;28;20048;-75
2024/03/22 00:29:15;;;;;;;20.80;11.95;;;;;;;8.11;100.00;101838.06;10270087;28;20119;-74
2024/03/22 00:34:11;;;;;;;22.98;13.18;;;;;;;8.11;100.00;101829.88;10263238;28;20039;-74
2024/03/22 00:39:07;;;;;;;19.67;12.32;;;;;;;8.08;100.00;101819.53;10280886;28;20037;-73
2024/03/22 00:44:03;;;;;;;20.60;13.05;;;;;;;8.12;100.00;101812.47;10272075;28;20615;-77
2024/03/22 00:48:58;;;;;;;16.65;12.40;;;;;;;8.18;100.00;101808.63;10262978;28;20040;-77
2024/03/22 00:53:54;;;;;;;24.65;11.95;;;;;;;8.18;100.00;101792.28;10256754;28;20493;-76
2024/03/22 00:58:49;;;;;;;24.73;12.55;;;;;;;8.23;100.00;101791.47;10269302;28;20497;-78
2024/03/22 01:03:45;;;;;;;17.70;12.20;;;;;;;8.18;100.00;101796.91;10266160;28;20055;-79
2024/03/22 01:08:40;;;;;;;22.52;12.30;;;;;;;8.17;100.00;101774.31;10261033;28;20052;-79
2024/03/22 01:13:36;;;;;;;20.88;12.52;;;;;;;8.21;100.00;101774.56;10249501;28;20060;-79
2024/03/22 01:18:31;;;;;;;21.98;12.65;;;;;;;8.16;100.00;101755.50;10274719;28;20097;-76
2024/03/22 01:23:27;;;;;;;26.23;13.35;;;;;;;8.14;100.00;101761.22;10259892;28;20043;-76
2024/03/22 01:28:23;;;;;;;20.08;12.25;;;;;;;8.11;100.00;101737.28;10261267;28;20045;-77
2024/03/22 01:33:18;;;;;;;17.30;11.57;;;;;;;8.17;100.00;101730.72;10256040;28;20040;-77
2024/03/22 01:38:14;;;;;;;24.75;13.55;;;;;;;8.14;100.00;101714.91;10271659;28;20497;-76
2024/03/22 01:43:09;;;;;;;24.45;13.70;;;;;;;8.12;100.00;101700.78;10268760;28;20579;-74
2024/03/22 01:48:07;;;;;;;22.58;13.85;;;;;;;8.10;100.00;101691.22;10264554;28;20131;-75
2024/03/22 01:53:03;;;;;;;20.33;13.25;;;;;;;8.18;100.00;101683.31;10249525;28;20037;-75
2024/03/22 01:57:59;;;;;;;20.50;13.73;;;;;;;8.20;100.00;101688.50;10270383;28;20501;-74
2024/03/22 02:02:54;;;;;;;25.05;14.82;;;;;;;8.19;100.00;101673.22;10279949;28;20048;-77
2024/03/22 02:07:50;;;;;;;28.27;14.95;;;;;;;8.16;100.00;101669.16;10273167;28;20041;-78
2024/03/22 02:12:45;;;;;;;26.70;15.73;;;;;;;8.20;100.00;101659.34;10279577;28;20037;-76
2024/03/22 02:17:41;;;;;;;24.13;15.85;;;;;;;8.26;100.00;101653.84;10275527;28;20052;-76
2024/03/22 02:22:37;;;;;;;25.80;16.15;;;;;;;8.26;100.00;101640.22;10262627;28;20056;-75
2024/03/22 02:27:33;;;;;;;29.38;16.58;;;;;;;8.22;100.00;101643.53;10276424;28;20041;-77
2024/03/22 02:32:29;;;;;;;25.13;15.52;;;;;;;8.26;100.00;101635.59;10270363;28;20562;-77
2024/03/22 02:37:24;;;;;;;35.83;16.92;;;;;;;8.30;100.00;101646.75;10267626;28;20058;-79
2024/03/22 02:42:20;;;;;;;33.17;17.63;;;;;;;8.34;100.00;101636.94;10273529;28;20424;-76
2024/03/22 02:47:15;;;;;;;30.65;18.48;;;;;;;8.39;100.00;101636.91;10282467;28;20036;-77
2024/03/22 02:52:11;;;;;;;30.15;16.88;;;;;;;8.37;100.00;101630.91;10263530;28;20050;-79
2024/03/22 02:57:06;;;;;;;34.10;19.05;;;;;;;8.40;100.00;101630.38;10270172;28;20036;-76
2024/03/22 03:02:02;;;;;;;28.58;19.10;;;;;;;8.40;100.00;101624.94;10269272;28;20688;-76
2024/03/22 03:06:57;;;;;;;35.13;19.63;;;;;;;8.40;100.00;101614.88;10273133;28;20513;-75
2024/03/22 03:11:53;;;;;;;34.67;20.42;;;;;;;8.48;100.00;101616.19;10267644;28;20040;-76
2024/03/22 03:16:49;;;;;;;40.13;21.85;;;;;;;8.46;100.00;101602.00;10267344;28;20045;-75
2024/03/22 03:21:44;;;;;;;36.67;21.55;;;;;;;8.53;100.00;101586.16;10268730;28;20049;-77
2024/03/22 03:26:40;;;;;;;38.10;22.58;;;;;;;8.53;100.00;101579.91;10274600;28;20067;-77
2024/03/22 03:31:36;;;;;;;36.25;22.13;;;;;;;8.55;100.00;101567.59;10267823;28;20073;-77
2024/03/22 03:36:31;;;;;;;41.85;22.42;;;;;;;8.58;100.00;101575.22;10261924;28;20039;-79
2024/03/22 03:41:28;;;;;;;39.35;22.98;;;;;;;8.61;100.00;101561.03;10261598;28;20043;-75
2024/03/22 03:46:23;;;;;;;37.20;23.65;;;;;;;8.62;100.00;101557.19;10266690;28;20072;-77
2024/03/22 03:51:19;;;;;;;40.28;22.20;;;;;;;8.65;100.00;101539.44;10263293;28;20457;-77
2024/03/22 03:56:14;;;;;;;46.25;24.92;;;;;;;8.62;100.00;101529.94;10263156;28;20040;-77
2024/03/22 04:01:10;;;;;;;42.78;24.48;;;;;;;8.68;100.00;101529.88;10278648;28;20056;-76
2024/03/22 04:06:05;;;;;;;39.30;24.08;;;;;;;8.64;100.00;101519.56;10263539;28;20044;-77
2024/03/22 04:11:02;;;;;;;41.60;25.20;;;;;;;8.68;100.00;101510.81;10269874;28;20045;-76
2024/03/22 04:15:59;;;;;;;47.80;27.20;;;;;;;8.66;100.00;101496.63;10260556;28;20037;-76
2024/03/22 04:20:55;;;;;;;45.78;26.73;;;;;;;8.69;100.00;101485.19;10275023;28;20048;-76
2024/03/22 04:26:01;;;;;;;47.47;28.70;;;;;;;8.73;100.00;101475.34;10272190;28;20057;-75
2024/03/22 04:31:02;;;;;;;50.55;27.83;;;;;;;8.74;100.00;101476.94;10273348;28;20056;-79
2024/03/22 04:36:00;;;;;;;48.57;27.30;;;;;;;8.74;100.00;101471.50;10259008;28;20119;-75
2024/03/22 04:40:56;;;;;;;49.75;26.98;;;;;;;8.75;100.00;101473.13;10264687;28;20052;-75
2024/03/22 04:45:52;;;;;;;48.95;27.73;;;;;;;8.77;100.00;101462.72;10268807;28;20069;-76
2024/03/22 04:50:50;;;;;;;48.72;28.23;;;;;;;8.79;100.00;101450.44;10276546;28;20037;-75
2024/03/22 04:55:45;;;;;;;46.50;27.65;;;;;;;8.82;100.00;101446.34;10267815;28;20049;-79
2024/03/22 05:00:41;;;;;;;50.97;28.33;;;;;;;8.82;100.00;101443.63;10266260;28;20041;-77
2024/03/22 05:05:38;;;;;;;48.50;27.77;;;;;;;8.83;100.00;101415.25;10262105;28;20490;-77
2024/03/22 05:10:34;;;;;;;50.65;28.50;;;;;;;8.87;100.00;101426.41;10262422;28;20037;-76
2024/03/22 05:15:29;;;;;;;48.33;27.75;;;;;;;8.91;100.00;101422.81;10257445;28;20048;-78
2024/03/22 05:20:26;;;;;;;48.13;29.35;;;;;;;8.91;100.00;101420.06;10267720;28;20120;-78
2024/03/22 05:25:21;;;;;;;44.75;27.20;;;;;;;8.90;100.00;101421.16;10261082;28;20116;-77
2024/03/22 05:30:17;;;;;;;44.47;27.17;;;;;;;8.91;100.00;101411.91;10262937;28;20052;-76
2024/03/22 05:35:13;;;;;;;52.45;27.55;;;;;;;8.96;100.00;101403.66;10251775;28;20057;-76
2024/03/22 05:40:09;;;;;;;48.58;26.83;;;;;;;9.00;100.00;101404.66;10270169;28;20041;-76
2024/03/22 05:45:05;;;;;;;48.40;29.20;;;;;;;8.99;100.00;101418.63;10273280;28;20153;-76
2024/03/22 05:50:02;;;;;;;47.47;26.85;;;;;;;9.06;100.00;101402.72;10264019;28;20049;-75
2024/03/22 05:54:58;;;;;;;50.10;29.20;;;;;;;9.06;100.00;101403.53;10259647;28;20053;-73
2024/03/22 05:59:53;;;;;;;55.95;30.73;;;;;;;9.10;100.00;101408.38;10259586;28;20103;-70
2024/03/22 06:04:49;;;;;;;63.30;30.40;;;;;;;9.10;100.00;101402.94;10263264;28;20060;-73
2024/03/22 06:09:47;;;;;;;56.30;30.50;;;;;;;9.13;100.00;101394.19;10265258;28;20056;-71
2024/03/22 06:14:44;;;;;;;56.08;30.90;;;;;;;9.14;100.00;101365.78;10264078;28;20076;-71
2024/03/22 06:19:39;;;;;;;52.40;30.38;;;;;;;9.20;100.00;101375.53;10243248;28;20507;-71
2024/03/22 06:24:35;;;;;;;57.28;30.52;;;;;;;9.21;100.00;101366.22;10243966;28;20087;-73
2024/03/22 06:29:31;;;;;;;58.85;31.23;;;;;;;9.27;100.00;101384.19;10247239;28;20161;-71
2024/03/22 06:34:26;;;;;;;59.67;33.15;;;;;;;9.35;100.00;101364.44;10267696;28;20044;-72
2024/03/22 06:39:22;;;;;;;56.17;32.58;;;;;;;9.41;100.00;101355.06;10261474;28;20447;-74
2024/03/22 06:44:17;;;;;;;58.53;30.92;;;;;;;9.52;100.00;101341.28;10247892;28;20132;-74
2024/03/22 06:49:13;;;;;;;58.03;32.17;;;;;;;9.53;100.00;101342.88;10261019;28;20124;-73
2024/03/22 06:54:08;;;;;;;58.38;33.05;;;;;;;9.51;100.00;101315.88;10252879;28;20045;-72
2024/03/22 06:59:04;;;;;;;64.65;34.53;;;;;;;9.65;100.00;101299.56;10260020;28;20045;-73
2024/03/22 07:03:59;;;;;;;64.75;33.88;;;;;;;9.60;100.00;101324.22;10279508;28;20038;-72
2024/03/22 07:08:55;;;;;;;61.00;32.20;;;;;;;9.65;100.00;101313.22;10268142;28;20040;-71
2024/03/22 07:13:51;;;;;;;58.50;31.63;;;;;;;9.66;100.00;101307.47;10267419;28;20037;-71
2024/03/22 07:18:48;;;;;;;54.03;31.48;;;;;;;9.67;100.00;101308.25;10256273;28;20037;-72
2024/03/22 07:23:44;;;;;;;63.58;34.08;;;;;;;9.69;100.00;101300.59;10260057;28;20085;-73
2024/03/22 07:28:39;;;;;;;60.42;33.00;;;;;;;9.78;100.00;101307.00;10274717;28;20051;-71
2024/03/22 07:33:35;;;;;;;58.70;32.70;;;;;;;9.75;100.00;101310.34;10266539;28;20045;-72
2024/03/22 07:38:30;;;;;;;65.47;34.78;;;;;;;9.83;100.00;101304.19;10273377;28;20052;-73
2024/03/22 07:49:44;;;;;;;65.82;35.25;;;;;;;9.86;100.00;101310.97;10256355;28;20045;-74
2024/03/22 07:54:39;;;;;;;64.25;33.50;;;;;;;9.89;100.00;101305.72;10261271;28;20559;-73
2024/03/22 07:59:35;;;;;;;64.60;34.10;;;;;;;9.65;100.00;101311.31;10266400;28;20049;-74
2024/03/22 08:04:31;;;;;;;68.97;35.95;;;;;;;9.50;100.00;101286.97;10269999;28;20044;-74
2024/03/22 08:09:26;;;;;;;68.85;33.55;;;;;;;9.43;100.00;101292.00;10252038;28;20038;-73
2024/03/22 08:14:22;;;;;;;69.88;35.60;;;;;;;9.51;100.00;101271.38;10250824;28;20052;-73
2024/03/22 08:19:17;;;;;;;70.10;37.17;;;;;;;9.59;100.00;101273.47;10259835;28;20048;-73
2024/03/22 08:24:13;;;;;;;69.30;36.17;;;;;;;9.50;100.00;101258.88;10265276;28;20091;-73
2024/03/22 08:29:09;;;;;;;69.40;37.33;;;;;;;9.47;100.00;101250.16;10239459;28;20108;-72
2024/03/22 08:34:05;;;;;;;69.28;36.58;;;;;;;9.50;100.00;101247.94;10245661;28;20048;-72
2024/03/22 08:39:01;;;;;;;66.60;35.90;;;;;;;9.46;100.00;101234.88;10262095;28;20080;-72
2024/03/22 08:43:57;;;;;;;67.78;35.97;;;;;;;9.45;100.00;101230.53;10265456;28;20064;-73
2024/03/22 08:48:53;;;;;;;67.70;33.75;;;;;;;9.48;100.00;101212.75;10251731;28;20126;-73
2024/03/22 08:53:49;;;;;;;68.35;35.78;;;;;;;9.43;100.00;101210.91;10261949;28;20482;-72
2024/03/22 08:58:45;;;;;;;68.43;34.85;;;;;;;9.41;100.00;101218.59;10272889;28;20048;-73
2024/03/22 09:03:40;;;;;;;70.65;35.33;;;;;;;9.38;100.00;101197.34;10259554;28;20045;-72
2024/03/22 09:08:36;;;;;;;74.05;36.17;;;;;;;9.33;100.00;101191.16;10262478;28;20047;-72
2024/03/22 09:13:34;;;;;;;78.90;37.35;;;;;;;9.35;100.00;101169.84;10237555;28;20051;-72
2024/03/22 09:18:31;;;;;;;81.40;37.75;;;;;;;9.34;100.00;101168.22;10245746;28;20057;-71
2024/03/22 09:23:26;;;;;;;72.47;36.63;;;;;;;9.37;100.00;101156.72;10240437;28;20068;-73
2024/03/22 09:28:22;;;;;;;78.78;37.75;;;;;;;9.33;100.00;101142.03;10257279;28;20392;-72
2024/03/22 09:33:18;;;;;;;75.95;34.55;;;;;;;9.37;100.00;101135.69;10251904;28;20407;-73
2024/03/22 09:38:15;;;;;;;68.25;33.13;;;;;;;9.34;100.00;101125.38;10267085;28;20041;-75
2024/03/22 09:43:15;;;;;;;65.97;33.17;;;;;;;9.32;100.00;101127.59;10261743;28;20081;-72
2024/03/22 09:48:11;;;;;;;69.80;34.00;;;;;;;9.38;100.00;101110.03;10250976;28;20461;-72
2024/03/22 09:53:07;;;;;;;55.17;29.70;;;;;;;9.38;100.00;101101.03;10243085;28;20049;-69
2024/03/22 09:58:04;;;;;;;58.72;30.35;;;;;;;9.34;100.00;101109.00;10243274;28;20903;-71
2024/03/22 10:03:00;;;;;;;57.20;27.65;;;;;;;9.31;100.00;101097.88;10262551;28;20068;-71
2024/03/22 10:07:56;;;;;;;54.53;28.25;;;;;;;9.32;100.00;101094.84;10256634;28;20455;-73
2024/03/22 10:12:52;;;;;;;61.08;31.70;;;;;;;9.27;100.00;101064.91;10245108;28;20052;-71
2024/03/22 10:17:48;;;;;;;64.93;30.65;;;;;;;9.30;100.00;101069.75;10257994;28;20071;-71
2024/03/22 10:22:54;;;;;;;58.05;28.33;;;;;;;9.25;100.00;101067.94;10251511;28;20497;-72
2024/03/22 10:27:50;;;;;;;61.75;30.58;;;;;;;9.30;100.00;101068.97;10254852;28;20079;-73
2024/03/22 10:32:46;;;;;;;54.85;26.23;;;;;;;9.26;100.00;101052.41;10243808;28;20053;-73
2024/03/22 10:37:42;;;;;;;51.42;24.92;;;;;;;9.28;100.00;101066.53;10269515;28;20034;-72
2024/03/22 10:42:39;;;;;;;56.17;26.98;;;;;;;9.22;100.00;101049.44;10269832;28;20041;-73
2024/03/22 10:47:36;;;;;;;41.63;23.63;;;;;;;9.27;100.00;101054.81;10263087;28;20064;-72
2024/03/22 10:52:35;;;;;;;40.33;20.90;;;;;;;9.22;100.00;101037.72;10265174;28;20740;-70
2024/03/22 10:57:33;;;;;;;31.60;15.73;;;;;;;9.19;100.00;101030.97;10268830;28;20528;-70
2024/03/22 11:02:29;;;;;;;31.75;16.92;;;;;;;9.18;100.00;101034.78;10265780;28;20138;-73
2024/03/22 11:07:29;;;;;;;25.88;13.70;;;;;;;9.16;100.00;101036.19;10247855;28;20471;-71
2024/03/22 11:12:25;;;;;;;23.42;13.20;;;;;;;9.21;100.00;101030.63;10254050;28;21155;-71
2024/03/22 11:17:24;;;;;;;27.23;15.18;;;;;;;9.18;100.00;101017.63;10260286;28;20497;-70
2024/03/22 11:22:20;;;;;;;24.17;13.30;;;;;;;9.24;100.00;101008.22;10282911;28;20044;-72
2024/03/22 11:27:15;;;;;;;20.90;11.80;;;;;;;9.14;100.00;101008.41;10257401;28;20037;-71
2024/03/22 11:32:12;;;;;;;21.10;12.85;;;;;;;9.14;100.00;100992.03;10259575;28;20048;-73
2024/03/22 11:37:10;;;;;;;20.65;11.35;;;;;;;9.17;100.00;100989.53;10256001;28;20905;-73
2024/03/22 11:42:07;;;;;;;16.92;10.70;;;;;;;9.23;100.00;100992.97;10252820;28;20175;-73
2024/03/22 11:47:03;;;;;;;19.58;9.95;;;;;;;9.28;100.00;100990.13;10251675;28;20076;-73
2024/03/22 11:52:00;;;;;;;22.08;11.07;;;;;;;9.36;100.00;100981.25;10253770;28;20076;-74
2024/03/22 11:56:59;;;;;;;17.40;10.65;;;;;;;9.42;100.00;100974.59;10263439;28;20429;-74
2024/03/22 12:01:54;;;;;;;17.95;10.35;;;;;;;9.44;100.00;100983.25;10262473;28;20051;-74
2024/03/22 12:06:50;;;;;;;17.38;10.63;;;;;;;9.52;100.00;100979.03;10254665;28;20405;-73
2024/03/22 12:11:45;;;;;;;18.67;10.50;;;;;;;9.54;100.00;100981.44;10261734;28;20044;-75
2024/03/22 12:16:41;;;;;;;22.55;11.43;;;;;;;9.56;100.00;100973.75;10264450;28;20043;-74
2024/03/22 12:21:36;;;;;;;19.00;10.50;;;;;;;9.40;100.00;100984.16;10267150;28;20041;-73
2024/03/22 12:26:32;;;;;;;19.23;10.38;;;;;;;9.41;100.00;100983.88;10261300;28;20051;-74
2024/03/22 12:31:28;;;;;;;15.93;8.90;;;;;;;9.25;100.00;100963.47;10262517;28;20051;-73
2024/03/22 12:36:24;;;;;;;20.60;11.00;;;;;;;9.27;100.00;100983.06;10260218;28;20564;-73
2024/03/22 12:41:19;;;;;;;20.10;11.15;;;;;;;9.25;100.00;100974.38;10266885;28;20065;-73
2024/03/22 12:46:15;;;;;;;18.35;9.30;;;;;;;9.21;100.00;100956.97;10253152;28;20053;-73
2024/03/22 12:51:11;;;;;;;18.00;10.60;;;;;;;9.28;100.00;100957.38;10245783;28;20099;-72
2024/03/22 12:56:06;;;;;;;12.70;7.45;;;;;;;9.34;100.00;100956.19;10261496;28;20563;-71
2024/03/22 13:01:03;;;;;;;14.55;6.85;;;;;;;9.46;100.00;100956.47;10267231;28;20060;-73
2024/03/22 13:05:58;;;;;;;12.55;5.90;;;;;;;9.45;100.00;100952.13;10259225;28;20088;-71
2024/03/22 13:10:54;;;;;;;6.22;3.83;;;;;;;9.24;100.00;100956.41;10251986;28;20627;-70
2024/03/22 13:15:49;;;;;;;5.05;2.83;;;;;;;9.10;100.00;100940.03;10239779;28;20037;-71
2024/03/22 13:20:46;;;;;;;6.53;2.58;;;;;;;9.11;100.00;100957.19;10245316;28;20051;-71
2024/03/22 13:25:42;;;;;;;5.40;2.30;;;;;;;9.11;100.00;100938.09;10252309;28;20574;-73
2024/03/22 13:30:38;;;;;;;6.20;2.55;;;;;;;9.04;100.00;100936.56;10261164;28;20124;-71
2024/03/22 13:35:34;;;;;;;4.55;2.53;;;;;;;9.08;100.00;100930.53;10272369;28;20052;-71
2024/03/22 13:40:30;;;;;;;3.85;2.28;;;;;;;9.01;100.00;100942.63;10252962;28;20068;-71
2024/03/22 13:45:25;;;;;;;4.28;2.47;;;;;;;8.93;100.00;100918.78;10252391;28;20045;-71
2024/03/22 13:50:22;;;;;;;4.05;2.20;;;;;;;8.90;100.00;100930.28;10254841;28;20049;-73
2024/03/22 13:55:17;;;;;;;4.57;2.00;;;;;;;8.95;100.00;100924.75;10248869;28;20112;-73
2024/03/22 14:00:14;;;;;;;6.05;2.85;;;;;;;8.95;100.00;100916.56;10271871;28;20089;-73
2024/03/22 14:05:10;;;;;;;5.03;2.55;;;;;;;9.01;100.00;100920.81;10276139;28;20084;-72
2024/03/22 14:10:08;;;;;;;3.65;2.10;;;;;;;8.99;100.00;100912.13;10267930;28;20099;-74
2024/03/22 14:15:06;;;;;;;5.35;2.60;;;;;;;9.10;100.00;100903.72;10262795;28;20099;-73
2024/03/22 14:20:05;;;;;;;3.50;2.00;;;;;;;9.06;100.00;100912.53;10266939;28;20088;-73
2024/03/22 14:25:02;;;;;;;3.40;2.03;;;;;;;8.99;100.00;100917.56;10263175;28;20084;-74
2024/03/22 14:29:59;;;;;;;4.75;1.98;;;;;;;8.84;100.00;100915.97;10263313;28;20057;-72
2024/03/22 14:34:55;;;;;;;4.25;1.90;;;;;;;8.83;100.00;100913.53;10262285;28;20083;-72
2024/03/22 14:39:50;;;;;;;3.00;1.70;;;;;;;8.77;100.00;100918.28;10254271;28;20041;-73
2024/03/22 14:44:46;;;;;;;12.65;2.38;;;;;;;8.59;100.00;100927.31;10249830;28;20064;-73
2024/03/22 14:49:42;;;;;;;8.57;2.50;;;;;;;8.54;100.00;100922.75;10263017;28;20075;-72
2024/03/22 14:54:37;;;;;;;10.88;3.13;;;;;;;8.46;100.00;100939.78;10247162;28;20041;-72
2024/03/22 14:59:33;;;;;;;16.05;4.38;;;;;;;8.35;100.00;100941.03;10242495;28;20041;-72
2024/03/22 15:04:28;;;;;;;19.77;3.10;;;;;;;8.40;100.00;100932.78;10268053;28;20051;-73
2024/03/22 15:09:24;;;;;;;16.90;4.20;;;;;;;8.24;100.00;100940.41;10258812;28;20110;-73
2024/03/22 15:14:21;;;;;;;15.85;3.00;;;;;;;8.18;100.00;100953.28;10271527;28;20048;-70
2024/03/22 15:19:17;;;;;;;17.60;4.28;;;;;;;8.28;100.00;100956.94;10273494;28;20075;-72
2024/03/22 15:24:13;;;;;;;11.90;3.50;;;;;;;8.43;100.00;100945.84;10275110;28;20047;-73
2024/03/22 15:29:08;;;;;;;18.00;4.35;;;;;;;8.56;100.00;100958.72;10271764;28;20037;-73
2024/03/22 15:34:05;;;;;;;16.45;4.18;;;;;;;8.46;100.00;100991.56;10272425;28;20053;-73
2024/03/22 15:39:00;;;;;;;16.08;4.93;;;;;;;8.43;100.00;101027.59;10271035;28;20033;-73
2024/03/22 15:43:56;;;;;;;16.42;4.50;;;;;;;8.43;100.00;101030.31;10268523;28;20068;-73
2024/03/22 15:48:52;;;;;;;13.27;4.25;;;;;;;8.46;100.00;101029.72;10255738;28;20711;-73
2024/03/22 15:53:47;;;;;;;14.07;4.15;;;;;;;8.50;100.00;101036.19;10264622;28;20723;-73
2024/03/22 15:58:44;;;;;;;17.13;4.80;;;;;;;8.44;100.00;101034.66;10265629;28;20055;-73
2024/03/22 16:03:39;;;;;;;28.52;5.20;;;;;;;8.48;100.00;101035.69;10263099;28;20516;-72
2024/03/22 16:08:35;;;;;;;20.52;5.18;;;;;;;8.47;100.00;101031.34;10260170;28;20061;-73
2024/03/22 16:13:30;;;;;;;25.50;6.57;;;;;;;8.53;100.00;101030.16;10265223;28;20044;-72
2024/03/22 16:18:26;;;;;;;20.13;4.75;;;;;;;8.45;100.00;101033.56;10251052;28;20068;-74
2024/03/22 16:23:22;;;;;;;19.38;5.80;;;;;;;8.49;100.00;101031.84;10257184;28;20048;-74
2024/03/22 16:28:17;;;;;;;14.98;5.03;;;;;;;8.40;100.00;101044.50;10262093;28;20394;-74
2024/03/22 16:33:13;;;;;;;28.80;7.15;;;;;;;8.40;100.00;101030.88;10273793;28;20124;-73
2024/03/22 16:38:08;;;;;;;24.20;7.35;;;;;;;8.46;100.00;101035.16;10271463;28;20398;-72
2024/03/22 16:43:04;;;;;;;21.17;5.32;;;;;;;8.39;100.00;101030.06;10268801;28;20042;-72
2024/03/22 16:47:59;;;;;;;19.77;6.63;;;;;;;8.36;100.00;101021.66;10259870;28;20524;-72
2024/03/22 16:52:55;;;;;;;14.35;5.63;;;;;;;8.38;100.00;101027.63;10267184;28;20536;-72
2024/03/22 16:57:52;;;;;;;25.65;6.45;;;;;;;8.32;100.00;101039.72;10269310;28;20040;-73
2024/03/22 17:02:51;;;;;;;17.67;5.30;;;;;;;8.33;100.00;101039.41;10252628;28;20079;-73
2024/03/22 17:07:46;;;;;;;26.63;6.93;;;;;;;8.29;100.00;101040.31;10274017;28;20040;-70
2024/03/22 17:12:42;;;;;;;18.25;6.05;;;;;;;8.28;100.00;101049.56;10259414;28;20144;-70
2024/03/22 17:17:37;;;;;;;23.42;5.63;;;;;;;8.21;100.00;101042.59;10266897;28;20045;-73
2024/03/22 17:22:34;;;;;;;23.77;7.05;;;;;;;8.19;100.00;101036.63;10257002;28;20086;-70
2024/03/22 17:27:29;;;;;;;15.50;5.35;;;;;;;8.21;100.00;101033.59;10281735;28;20123;-71
2024/03/22 17:32:25;;;;;;;20.50;6.95;;;;;;;8.21;100.00;101039.03;10274958;28;20098;-70
2024/03/22 17:37:21;;;;;;;18.67;6.70;;;;;;;8.18;100.00;101034.97;10258584;28;20037;-70
2024/03/22 17:42:17;;;;;;;21.40;6.03;;;;;;;8.11;100.00;101040.00;10270888;28;20511;-71
2024/03/22 17:47:12;;;;;;;19.65;5.72;;;;;;;8.11;100.00;101034.53;10265185;28;20416;-71
2024/03/22 17:52:08;;;;;;;19.05;5.57;;;;;;;8.17;100.00;101030.66;10275386;28;20056;-71
2024/03/22 17:57:03;;;;;;;24.77;6.47;;;;;;;8.14;100.00;101031.22;10266782;28;20046;-71
2024/03/22 18:01:59;;;;;;;27.15;5.75;;;;;;;8.16;100.00;101025.50;10250555;28;20563;-71
2024/03/22 18:06:55;;;;;;;23.48;6.55;;;;;;;8.19;100.00;101025.72;10258637;28;20052;-71
2024/03/22 18:11:50;;;;;;;24.55;6.40;;;;;;;8.26;100.00;101040.88;10255455;28;20067;-71
2024/03/22 18:16:46;;;;;;;24.00;6.53;;;;;;;8.33;100.00;101038.59;10252692;28;20056;-73
2024/03/22 18:21:41;;;;;;;29.90;7.28;;;;;;;8.25;100.00;101028.38;10251738;28;20057;-71
2024/03/22 18:26:37;;;;;;;24.98;6.80;;;;;;;8.27;100.00;101026.16;10240357;28;20334;-70
2024/03/22 18:31:32;;;;;;;22.52;6.97;;;;;;;8.20;100.00;101027.34;10251837;28;20140;-71
2024/03/22 18:36:28;;;;;;;22.95;7.38;;;;;;;8.19;100.00;101033.91;10258545;28;20037;-72
2024/03/22 18:41:24;;;;;;;19.67;6.40;;;;;;;8.19;100.00;101033.91;10261920;28;20037;-71
2024/03/22 18:46:19;;;;;;;31.98;6.55;;;;;;;8.14;100.00;101023.03;10261220;28;20098;-73
2024/03/22 18:51:15;;;;;;;27.58;7.65;;;;;;;8.11;100.00;101023.66;10251504;28;20047;-70
2024/03/22 18:56:11;;;;;;;19.30;6.68;;;;;;;8.11;100.00;101012.75;10262010;28;20049;-71
2024/03/22 19:01:07;;;;;;;22.02;6.60;;;;;;;8.03;100.00;101021.59;10252161;28;20637;-70
2024/03/22 19:06:03;;;;;;;28.60;7.32;;;;;;;7.96;100.00;101016.50;10255948;28;20105;-70
2024/03/22 19:10:58;;;;;;;24.25;6.72;;;;;;;7.94;100.00;101029.59;10264353;28;20048;-70
2024/03/22 19:15:54;;;;;;;24.05;6.30;;;;;;;7.96;100.00;101032.00;10258782;28;20047;-70
2024/03/22 19:20:51;;;;;;;21.92;5.80;;;;;;;7.85;100.00;101015.00;10255723;28;20079;-70
2024/03/22 19:25:49;;;;;;;26.50;6.32;;;;;;;7.88;100.00;101002.72;10242688;28;20095;-70
2024/03/22 19:30:44;;;;;;;19.38;5.63;;;;;;;7.78;100.00;101009.91;10254401;28;20096;-71
2024/03/22 19:35:40;;;;;;;24.15;5.40;;;;;;;7.78;100.00;101004.47;10268920;28;20037;-70
2024/03/22 19:40:36;;;;;;;22.13;5.68;;;;;;;7.75;100.00;101004.25;10253979;28;20044;-70
2024/03/22 19:45:32;;;;;;;26.02;6.40;;;;;;;7.85;100.00;100989.72;10269135;28;20122;-70
2024/03/22 19:50:28;;;;;;;29.65;7.13;;;;;;;7.84;100.00;100979.91;10270142;28;20152;-70
2024/03/22 19:55:23;;;;;;;22.80;5.35;;;;;;;7.76;100.00;100984.91;10266991;28;20052;-70
2024/03/22 20:00:20;;;;;;;31.20;5.88;;;;;;;7.71;100.00;100987.69;10265420;28;20060;-70
2024/03/22 20:05:15;;;;;;;19.45;4.40;;;;;;;7.64;100.00;100992.69;10257304;28;20079;-71
2024/03/22 20:10:11;;;;;;;22.58;5.82;;;;;;;7.55;100.00;100999.88;10267860;28;20504;-70
2024/03/22 20:15:08;;;;;;;25.65;5.45;;;;;;;7.54;100.00;100990.06;10283302;28;20580;-70
2024/03/22 20:20:05;;;;;;;30.27;7.30;;;;;;;7.57;100.00;100997.69;10279739;28;20512;-71
2024/03/22 20:25:01;;;;;;;28.33;5.43;;;;;;;7.54;100.00;101004.50;10265245;28;20080;-71
2024/03/22 20:29:56;;;;;;;21.60;5.57;;;;;;;7.47;100.00;101009.50;10268055;28;20075;-70
2024/03/22 20:34:52;;;;;;;26.58;5.88;;;;;;;7.37;100.00;101015.84;10256989;28;20037;-71
2024/03/22 20:39:49;;;;;;;22.00;5.90;;;;;;;7.31;100.00;101006.13;10271571;28;20048;-71
2024/03/22 20:44:45;;;;;;;36.72;5.90;;;;;;;7.24;100.00;101011.09;10253915;28;20076;-72
2024/03/22 20:49:42;;;;;;;27.75;5.43;;;;;;;7.18;100.00;101006.81;10256003;28;20486;-72
2024/03/22 20:54:39;;;;;;;21.90;5.88;;;;;;;7.15;100.00;100996.50;10238530;28;20095;-71
2024/03/22 20:59:36;;;;;;;26.13;5.35;;;;;;;7.15;100.00;100991.06;10259094;28;20065;-71
2024/03/22 21:04:33;;;;;;;18.08;4.85;;;;;;;7.09;100.00;100986.78;10267747;28;20095;-71
2024/03/22 21:09:29;;;;;;;27.88;4.90;;;;;;;7.09;100.00;100986.78;10251776;28;20816;-71
2024/03/22 21:14:26;;;;;;;26.55;5.22;;;;;;;6.95;100.00;100990.16;10262095;28;20040;-70
2024/03/22 21:19:30;;;;;;;27.13;5.85;;;;;;;6.98;100.00;100996.13;10263121;28;20064;-71
2024/03/22 21:24:27;;;;;;;37.30;6.03;;;;;;;6.97;100.00;100994.53;10262444;28;20703;-71
2024/03/22 21:29:24;;;;;;;30.23;5.50;;;;;;;7.00;100.00;100999.38;10257983;28;20480;-71
2024/03/22 21:34:21;;;;;;;23.45;4.70;;;;;;;6.91;100.00;100994.53;10259918;28;20041;-71
2024/03/22 21:39:17;;;;;;;30.38;5.53;;;;;;;6.91;100.00;100985.59;10263715;28;20091;-71
2024/03/22 21:44:14;;;;;;;26.17;5.03;;;;;;;6.94;100.00;100980.41;10263081;28;20037;-72
2024/03/22 21:49:11;;;;;;;25.80;5.20;;;;;;;7.04;100.00;100967.81;10259061;28;20464;-71
2024/03/22 21:54:07;;;;;;;27.55;6.35;;;;;;;7.02;100.00;100970.81;10248765;28;20501;-71
2024/03/22 21:59:04;;;;;;;26.35;5.90;;;;;;;7.06;100.00;100965.63;10265301;28;20080;-71
2024/03/22 22:04:01;;;;;;;26.10;5.20;;;;;;;7.04;100.00;100968.59;10256918;28;20079;-71
2024/03/22 22:08:57;;;;;;;35.40;5.53;;;;;;;6.79;100.00;100958.78;10253705;28;20084;-70
2024/03/22 22:13:54;;;;;;;25.48;6.28;;;;;;;6.87;100.00;100946.47;10259380;28;20069;-71
2024/03/22 22:18:51;;;;;;;27.33;5.78;;;;;;;6.82;100.00;100949.25;10249327;28;20087;-71
2024/03/22 22:23:48;;;;;;;27.63;5.10;;;;;;;6.71;100.00;100943.13;10262794;28;20148;-73